Time;durP1;ratioP1;P1;durP2;ratioP2;P2;SDS_P1;SDS_P2;PMS_P1;PMS_P2;Temp;Humidity;BMP_temperature;BMP_pressure;BME280_temperature;BME280_humidity;BME280_pressure;Samples;Min_cycle;Max_cycle;Signal;HPM_P1;HPM_P2
2023/02/26 00:01:07;;;;;;;9.43;4.18;;;2.60;99.90;;;;;;4936653;29;20047;-80
2023/02/26 00:03:35;;;;;;;11.10;3.13;;;2.60;99.90;;;;;;4937104;29;20050;-79
2023/02/26 00:06:02;;;;;;;15.50;4.75;;;2.60;99.90;;;;;;4935022;29;20071;-79
2023/02/26 00:08:30;;;;;;;11.70;3.90;;;2.60;99.90;;;;;;4936896;29;20447;-79
2023/02/26 00:10:56;;;;;;;15.38;4.63;;;2.50;99.90;;;;;;4935804;29;20060;-79
2023/02/26 00:13:23;;;;;;;14.98;4.10;;;2.50;99.90;;;;;;4935696;29;20074;-79
2023/02/26 00:15:50;;;;;;;17.80;4.45;;;2.50;99.90;;;;;;4936035;29;20076;-79
2023/02/26 00:18:19;;;;;;;10.37;3.40;;;2.50;99.90;;;;;;4935840;29;20083;-79
2023/02/26 00:20:45;;;;;;;15.30;4.03;;;2.40;99.90;;;;;;4937207;29;20055;-79
2023/02/26 00:23:13;;;;;;;8.93;3.22;;;2.40;99.90;;;;;;4936511;29;20047;-79
2023/02/26 00:25:40;;;;;;;11.93;3.40;;;2.40;99.90;;;;;;4934940;29;20141;-79
2023/02/26 00:28:06;;;;;;;10.70;3.08;;;2.40;99.90;;;;;;4938357;29;20054;-79
2023/02/26 00:30:33;;;;;;;11.90;4.72;;;2.40;99.90;;;;;;4940314;29;20044;-79
2023/02/26 00:32:59;;;;;;;14.90;3.88;;;2.40;99.90;;;;;;4937962;29;20067;-79
2023/02/26 00:35:26;;;;;;;15.88;4.53;;;2.30;99.90;;;;;;4940031;29;20356;-79
2023/02/26 00:37:53;;;;;;;13.88;3.60;;;2.40;99.90;;;;;;4922579;29;20463;-79
2023/02/26 00:40:19;;;;;;;13.63;3.13;;;2.30;99.90;;;;;;4939107;29;20335;-79
2023/02/26 00:42:46;;;;;;;11.05;3.13;;;2.30;99.90;;;;;;4938600;29;20522;-79
2023/02/26 00:45:13;;;;;;;8.98;3.38;;;2.30;99.90;;;;;;4939089;29;20040;-79
2023/02/26 00:47:39;;;;;;;7.28;2.60;;;2.40;99.90;;;;;;4939112;29;20374;-79
2023/02/26 00:50:06;;;;;;;11.35;3.13;;;2.30;99.90;;;;;;4939067;29;20111;-78
2023/02/26 00:52:33;;;;;;;10.55;3.20;;;2.30;99.90;;;;;;4938501;29;20044;-79
2023/02/26 00:54:59;;;;;;;11.18;3.92;;;2.30;99.90;;;;;;4939985;29;20055;-79
2023/02/26 00:57:26;;;;;;;15.27;3.70;;;2.20;99.90;;;;;;4939262;29;20422;-79
2023/02/26 00:59:53;;;;;;;13.32;2.97;;;2.30;99.90;;;;;;4939829;29;20044;-79
2023/02/26 01:02:20;;;;;;;9.35;3.15;;;2.30;99.90;;;;;;4939410;29;20031;-79
2023/02/26 01:04:47;;;;;;;9.23;2.70;;;2.30;99.90;;;;;;4938563;29;20131;-79
2023/02/26 01:07:14;;;;;;;10.23;2.83;;;2.20;99.90;;;;;;4940044;29;20035;-79
2023/02/26 01:09:40;;;;;;;16.20;3.22;;;2.20;99.90;;;;;;4938652;29;20074;-79
2023/02/26 01:12:07;;;;;;;13.48;3.67;;;2.20;99.90;;;;;;4937548;29;20059;-79
2023/02/26 01:14:33;;;;;;;8.18;2.70;;;2.20;99.90;;;;;;4939526;29;20070;-79
2023/02/26 01:17:00;;;;;;;9.93;3.03;;;2.20;99.90;;;;;;4939428;29;20052;-79
2023/02/26 01:19:27;;;;;;;11.55;3.47;;;2.10;99.90;;;;;;4938414;29;20486;-79
2023/02/26 01:21:53;;;;;;;8.35;3.55;;;2.10;99.90;;;;;;4939195;29;20040;-79
2023/02/26 01:24:20;;;;;;;7.70;2.63;;;2.10;99.90;;;;;;4921634;29;20062;-79
2023/02/26 01:26:48;;;;;;;10.85;4.03;;;2.10;99.90;;;;;;4938638;29;20040;-79
2023/02/26 01:29:15;;;;;;;15.82;3.05;;;2.10;99.90;;;;;;4939550;29;20044;-79
2023/02/26 01:31:41;;;;;;;10.18;3.25;;;2.10;99.90;;;;;;4937709;29;20052;-79
2023/02/26 01:34:08;;;;;;;11.23;2.95;;;2.10;99.90;;;;;;4938462;29;20051;-79
2023/02/26 01:36:35;;;;;;;9.07;3.33;;;2.10;99.90;;;;;;4938365;29;20467;-79
2023/02/26 01:39:02;;;;;;;10.68;3.45;;;2.00;99.90;;;;;;4938267;29;20067;-79
2023/02/26 01:41:28;;;;;;;12.50;3.75;;;2.00;99.90;;;;;;4918926;29;20063;-79
2023/02/26 01:43:55;;;;;;;15.45;3.90;;;2.00;99.90;;;;;;4918892;29;20138;-79
2023/02/26 01:46:22;;;;;;;10.15;3.75;;;1.90;99.90;;;;;;4902701;29;20059;-79
2023/02/26 01:48:49;;;;;;;8.18;2.60;;;1.90;99.90;;;;;;4920059;29;20051;-79
2023/02/26 01:51:15;;;;;;;13.43;3.47;;;1.90;99.90;;;;;;4917555;29;20055;-80
2023/02/26 01:53:42;;;;;;;10.75;2.30;;;1.90;99.90;;;;;;4919078;29;20059;-79
2023/02/26 01:56:09;;;;;;;11.55;2.33;;;1.90;99.90;;;;;;4918874;29;20048;-79
2023/02/26 01:58:36;;;;;;;10.88;2.47;;;1.90;99.90;;;;;;4917474;29;20047;-79
2023/02/26 02:01:03;;;;;;;8.52;4.30;;;1.90;99.90;;;;;;4918330;29;20519;-79
2023/02/26 02:03:30;;;;;;;6.85;2.35;;;1.80;99.90;;;;;;4918941;29;20088;-79
2023/02/26 02:05:57;;;;;;;5.82;2.25;;;1.80;99.90;;;;;;4918665;29;20055;-79
2023/02/26 02:08:23;;;;;;;8.43;3.22;;;1.80;99.90;;;;;;4919766;29;20040;-79
2023/02/26 02:10:50;;;;;;;12.82;3.20;;;1.80;99.90;;;;;;4917185;29;20063;-79
2023/02/26 02:13:17;;;;;;;7.15;2.00;;;1.80;99.90;;;;;;4918648;29;20059;-79
2023/02/26 02:15:46;;;;;;;5.97;2.58;;;1.80;99.90;;;;;;4918521;29;20080;-79
2023/02/26 02:18:12;;;;;;;11.80;3.33;;;1.80;99.90;;;;;;4918445;29;20431;-79
2023/02/26 02:20:39;;;;;;;9.95;3.05;;;1.80;99.90;;;;;;4919599;29;20055;-79
2023/02/26 02:23:06;;;;;;;10.32;3.28;;;1.80;99.90;;;;;;4917898;29;20058;-79
2023/02/26 02:25:32;;;;;;;9.60;2.90;;;1.80;99.90;;;;;;4917391;29;20104;-79
2023/02/26 02:27:59;;;;;;;6.22;2.28;;;1.80;99.90;;;;;;4918254;29;20052;-79
2023/02/26 02:30:26;;;;;;;7.10;2.25;;;1.80;99.90;;;;;;4919223;29;20061;-79
2023/02/26 02:32:52;;;;;;;11.95;2.63;;;1.80;99.90;;;;;;4916808;29;20083;-79
2023/02/26 02:35:19;;;;;;;9.65;2.80;;;1.70;99.90;;;;;;4919055;29;20067;-79
2023/02/26 02:37:46;;;;;;;12.73;3.45;;;1.80;99.90;;;;;;4918119;29;20479;-79
2023/02/26 02:40:12;;;;;;;10.65;3.35;;;1.80;99.90;;;;;;4919085;29;20048;-79
2023/02/26 02:42:39;;;;;;;7.40;2.97;;;1.80;99.90;;;;;;4932115;29;20061;-79
2023/02/26 02:45:06;;;;;;;14.18;4.18;;;1.70;99.90;;;;;;4937268;29;20039;-80
2023/02/26 02:47:32;;;;;;;15.25;3.88;;;1.80;99.90;;;;;;4936885;29;20439;-79
2023/02/26 02:49:59;;;;;;;10.15;2.40;;;1.90;99.90;;;;;;4936682;29;20044;-79
2023/02/26 02:52:25;;;;;;;13.30;3.13;;;1.90;99.90;;;;;;4936029;29;20055;-79
2023/02/26 02:54:53;;;;;;;12.23;2.78;;;2.00;99.90;;;;;;4937607;29;20478;-80
2023/02/26 02:57:20;;;;;;;13.10;3.05;;;2.00;99.90;;;;;;4935773;29;20095;-79
2023/02/26 02:59:46;;;;;;;13.05;3.25;;;2.00;99.90;;;;;;4936683;29;20054;-79
2023/02/26 03:02:13;;;;;;;8.20;2.70;;;2.00;99.90;;;;;;4936324;29;20387;-79
2023/02/26 03:04:40;;;;;;;7.10;2.60;;;1.90;99.90;;;;;;4936808;29;20047;-80
2023/02/26 03:07:06;;;;;;;6.65;2.60;;;1.90;99.90;;;;;;4937688;29;20056;-79
2023/02/26 03:09:33;;;;;;;15.55;2.83;;;1.90;99.90;;;;;;4937512;29;20044;-79
2023/02/26 03:12:00;;;;;;;11.50;3.78;;;1.90;99.90;;;;;;4935138;29;20048;-79
2023/02/26 03:14:26;;;;;;;13.25;3.70;;;1.80;99.90;;;;;;4936457;29;20497;-79
2023/02/26 03:16:53;;;;;;;9.35;3.42;;;1.90;99.90;;;;;;4937773;29;20123;-79
2023/02/26 03:19:20;;;;;;;6.05;2.10;;;1.90;99.90;;;;;;4936439;29;20036;-79
2023/02/26 03:21:47;;;;;;;11.27;3.50;;;2.00;99.90;;;;;;4936085;29;20047;-79
2023/02/26 03:24:23;;;;;;;7.63;2.20;;;2.10;99.90;;;;;;4935339;29;20039;-79
2023/02/26 03:26:49;;;;;;;11.30;2.83;;;2.20;99.90;;;;;;4936426;29;20043;-79
2023/02/26 03:29:16;;;;;;;12.68;3.17;;;2.30;99.90;;;;;;4920852;29;20070;-78
2023/02/26 03:31:43;;;;;;;8.15;2.20;;;2.30;99.90;;;;;;4919299;29;20048;-78
2023/02/26 03:34:10;;;;;;;8.95;2.70;;;2.40;99.90;;;;;;4936529;29;20422;-78
2023/02/26 03:36:37;;;;;;;6.78;3.03;;;2.40;99.90;;;;;;4936151;29;20053;-78
2023/02/26 03:39:25;;;;;;;12.45;2.55;;;2.50;99.90;;;;;;4922408;29;20044;-79
2023/02/26 03:41:52;;;;;;;16.35;3.80;;;2.50;99.90;;;;;;4920161;29;20048;-79
2023/02/26 03:44:19;;;;;;;10.65;3.38;;;2.50;99.90;;;;;;4951164;28;20455;-78
2023/02/26 03:46:46;;;;;;;12.82;3.63;;;2.60;99.90;;;;;;4936121;29;20082;-79
2023/02/26 03:49:13;;;;;;;10.13;2.63;;;2.60;99.90;;;;;;4952150;29;20509;-79
2023/02/26 03:51:40;;;;;;;12.07;2.83;;;2.60;99.90;;;;;;4950653;28;20047;-79
2023/02/26 03:54:39;;;;;;;9.98;3.05;;;2.60;99.90;;;;;;4947743;29;20449;-79
2023/02/26 03:57:24;;;;;;;12.35;2.97;;;2.70;99.90;;;;;;4935958;29;20162;-78
2023/02/26 04:00:11;;;;;;;11.38;2.85;;;2.70;99.90;;;;;;4936035;29;20055;-78
2023/02/26 04:02:42;;;;;;;9.95;2.85;;;2.70;99.90;;;;;;4938200;29;20055;-78
2023/02/26 04:05:14;;;;;;;18.70;3.22;;;2.70;99.90;;;;;;4954718;28;20455;-80
2023/02/26 04:07:41;;;;;;;5.15;2.10;;;2.80;99.90;;;;;;4955867;29;20040;-79
2023/02/26 04:10:08;;;;;;;9.10;2.58;;;2.70;99.90;;;;;;4940555;29;20055;-79
2023/02/26 04:12:36;;;;;;;9.40;3.17;;;2.80;99.90;;;;;;4954461;28;20066;-79
2023/02/26 04:15:05;;;;;;;7.10;2.83;;;2.80;99.90;;;;;;4955817;29;20100;-79
2023/02/26 04:17:32;;;;;;;8.43;3.65;;;2.80;99.90;;;;;;4954507;28;20450;-78
2023/02/26 04:20:00;;;;;;;8.20;3.38;;;2.90;99.90;;;;;;4955347;29;20040;-80
2023/02/26 04:22:26;;;;;;;9.85;2.72;;;2.90;99.90;;;;;;4939997;29;20054;-79
2023/02/26 04:24:54;;;;;;;14.32;4.13;;;2.90;99.90;;;;;;4954364;28;20078;-80
2023/02/26 04:27:21;;;;;;;11.52;3.40;;;2.90;99.90;;;;;;4955516;29;20071;-79
2023/02/26 04:29:48;;;;;;;10.85;3.80;;;3.00;99.90;;;;;;4955339;28;20379;-79
2023/02/26 04:32:15;;;;;;;12.43;4.05;;;3.00;99.90;;;;;;4953978;29;20094;-79
2023/02/26 04:34:41;;;;;;;8.02;2.50;;;3.00;99.90;;;;;;4955242;29;20476;-79
2023/02/26 04:37:09;;;;;;;6.15;3.40;;;3.00;99.90;;;;;;4955159;28;20058;-79
2023/02/26 04:39:36;;;;;;;7.63;2.30;;;3.00;99.90;;;;;;4954006;29;20054;-79
2023/02/26 04:42:04;;;;;;;9.95;3.20;;;3.00;99.90;;;;;;4938748;29;20063;-79
2023/02/26 04:44:31;;;;;;;8.40;2.95;;;3.00;99.90;;;;;;4938041;29;20039;-79
2023/02/26 04:46:59;;;;;;;11.07;3.15;;;3.00;99.90;;;;;;4939347;29;20055;-79
2023/02/26 04:49:26;;;;;;;11.45;2.80;;;3.10;99.90;;;;;;4939046;29;20118;-79
2023/02/26 04:51:53;;;;;;;11.27;3.42;;;3.10;99.90;;;;;;4937606;29;20378;-79
2023/02/26 04:54:20;;;;;;;13.10;3.47;;;3.10;99.90;;;;;;4939857;29;20534;-78
2023/02/26 04:56:46;;;;;;;11.05;2.40;;;3.10;99.90;;;;;;4939328;29;20375;-79
2023/02/26 04:59:14;;;;;;;10.90;3.10;;;3.10;99.90;;;;;;4938018;29;20036;-79
2023/02/26 05:01:41;;;;;;;14.25;3.00;;;3.00;99.90;;;;;;4938343;29;20067;-79
2023/02/26 05:04:07;;;;;;;10.02;2.92;;;3.00;99.90;;;;;;4921882;29;20150;-79
2023/02/26 05:06:36;;;;;;;8.77;2.67;;;3.00;99.90;;;;;;4938755;29;20059;-79
2023/02/26 05:09:02;;;;;;;12.45;3.15;;;3.00;99.90;;;;;;4939788;29;20439;-79
2023/02/26 05:11:29;;;;;;;14.68;3.35;;;3.00;99.90;;;;;;4937334;29;20472;-79
2023/02/26 05:13:56;;;;;;;15.57;3.70;;;3.00;99.90;;;;;;4938148;29;20043;-78
2023/02/26 05:16:22;;;;;;;11.98;3.35;;;3.00;99.90;;;;;;4938437;29;20048;-78
2023/02/26 05:18:50;;;;;;;6.93;3.53;;;3.00;99.90;;;;;;4937346;29;20509;-77
2023/02/26 05:21:17;;;;;;;8.13;2.90;;;3.00;99.90;;;;;;4938041;29;20043;-79
2023/02/26 05:23:43;;;;;;;10.38;3.05;;;3.00;99.90;;;;;;4938831;29;20039;-78
2023/02/26 05:26:10;;;;;;;9.05;3.05;;;3.00;99.90;;;;;;4938267;29;20068;-78
2023/02/26 05:28:37;;;;;;;12.70;2.63;;;3.00;99.90;;;;;;4922576;29;20043;-78
2023/02/26 05:31:04;;;;;;;14.82;2.80;;;3.00;99.90;;;;;;4936864;29;20099;-78
2023/02/26 05:33:31;;;;;;;10.45;3.05;;;3.00;99.90;;;;;;4938204;29;20044;-78
2023/02/26 05:35:57;;;;;;;11.65;3.58;;;2.90;99.90;;;;;;4922553;29;20051;-78
2023/02/26 05:38:24;;;;;;;9.35;2.70;;;3.00;99.90;;;;;;4938036;29;20055;-78
2023/02/26 05:40:50;;;;;;;9.25;2.80;;;3.00;99.90;;;;;;4938539;29;20484;-78
2023/02/26 05:43:17;;;;;;;11.88;2.78;;;3.00;99.90;;;;;;4938979;29;20043;-78
2023/02/26 05:45:44;;;;;;;8.95;2.50;;;3.10;99.90;;;;;;4937702;29;20058;-78
2023/02/26 05:48:10;;;;;;;13.82;3.67;;;3.10;99.90;;;;;;4938799;29;20114;-78
2023/02/26 05:50:37;;;;;;;12.48;3.22;;;3.00;99.90;;;;;;4937555;29;20062;-78
2023/02/26 05:53:03;;;;;;;9.73;3.80;;;3.00;99.90;;;;;;4938846;29;20072;-78
2023/02/26 05:55:30;;;;;;;9.20;3.10;;;2.90;99.90;;;;;;4938842;29;20475;-78
2023/02/26 05:57:57;;;;;;;12.00;4.18;;;2.90;99.90;;;;;;4937718;29;20059;-78
2023/02/26 06:00:23;;;;;;;16.67;4.28;;;2.80;99.90;;;;;;4938618;29;20051;-77
2023/02/26 06:02:50;;;;;;;10.80;2.95;;;2.80;99.90;;;;;;4938512;29;20055;-78
2023/02/26 06:05:17;;;;;;;8.35;2.63;;;2.70;99.90;;;;;;4937663;29;20071;-78
2023/02/26 06:07:43;;;;;;;13.80;3.78;;;2.70;99.90;;;;;;4938720;29;20051;-78
2023/02/26 06:10:10;;;;;;;7.53;2.75;;;2.60;99.90;;;;;;4938619;29;20055;-79
2023/02/26 06:12:36;;;;;;;9.15;3.55;;;2.50;99.90;;;;;;4936559;29;20601;-78
2023/02/26 06:15:03;;;;;;;7.70;3.33;;;2.50;99.90;;;;;;4937587;29;20047;-78
2023/02/26 06:17:30;;;;;;;10.20;2.45;;;2.50;99.90;;;;;;4937700;29;20344;-77
2023/02/26 06:19:56;;;;;;;13.85;4.30;;;2.50;99.90;;;;;;4938270;29;20047;-77
2023/02/26 06:22:23;;;;;;;8.07;3.25;;;2.50;99.90;;;;;;4937857;29;20039;-78
2023/02/26 06:24:49;;;;;;;14.40;4.15;;;2.60;99.90;;;;;;4936799;29;20065;-78
2023/02/26 06:27:16;;;;;;;6.85;2.50;;;2.70;99.90;;;;;;4937946;29;20040;-78
2023/02/26 06:29:43;;;;;;;7.82;2.53;;;2.70;99.90;;;;;;4938066;29;20478;-78
2023/02/26 06:32:09;;;;;;;10.07;3.08;;;2.80;99.90;;;;;;4936791;29;20058;-78
2023/02/26 06:34:36;;;;;;;10.35;2.40;;;2.80;99.90;;;;;;4938108;29;20043;-78
2023/02/26 06:37:03;;;;;;;5.43;2.10;;;2.80;99.90;;;;;;4937120;29;20058;-78
2023/02/26 06:39:29;;;;;;;8.80;2.53;;;2.90;99.90;;;;;;4936969;29;20086;-78
2023/02/26 06:41:56;;;;;;;7.20;3.08;;;2.90;99.90;;;;;;4937431;29;20043;-78
2023/02/26 06:44:22;;;;;;;10.27;3.33;;;2.90;99.90;;;;;;4935971;29;20052;-78
2023/02/26 06:46:49;;;;;;;9.52;2.40;;;2.90;99.90;;;;;;4937817;29;20039;-78
2023/02/26 06:49:16;;;;;;;8.82;2.25;;;2.80;99.90;;;;;;4937839;29;20467;-78
2023/02/26 06:51:42;;;;;;;10.88;3.88;;;2.60;99.90;;;;;;4935537;29;20040;-78
2023/02/26 06:54:09;;;;;;;12.27;3.42;;;2.50;99.90;;;;;;4937841;29;20043;-78
2023/02/26 06:56:35;;;;;;;7.05;2.30;;;2.40;99.90;;;;;;4937598;29;20051;-78
2023/02/26 06:59:02;;;;;;;11.20;2.28;;;2.30;99.90;;;;;;4935982;29;20048;-78
2023/02/26 07:01:30;;;;;;;8.68;2.78;;;2.30;99.90;;;;;;4937399;29;20071;-78
2023/02/26 07:03:57;;;;;;;9.85;3.38;;;2.20;99.90;;;;;;4935951;29;20051;-78
2023/02/26 07:06:24;;;;;;;8.70;3.13;;;2.30;99.90;;;;;;4936721;29;20427;-78
2023/02/26 07:08:53;;;;;;;8.10;2.30;;;2.30;99.90;;;;;;4936633;29;20047;-78
2023/02/26 07:11:20;;;;;;;10.80;3.58;;;2.40;99.90;;;;;;4935015;29;20060;-78
2023/02/26 07:13:46;;;;;;;9.55;3.90;;;2.50;99.90;;;;;;4937444;29;20076;-79
2023/02/26 07:16:13;;;;;;;11.93;2.53;;;2.60;99.90;;;;;;4937545;29;20126;-78
2023/02/26 07:18:40;;;;;;;10.40;2.63;;;2.60;99.90;;;;;;4936581;29;20063;-78
2023/02/26 07:21:06;;;;;;;7.43;2.42;;;2.70;99.90;;;;;;4936993;29;20114;-78
2023/02/26 07:23:33;;;;;;;11.70;3.17;;;2.80;99.90;;;;;;4937395;29;20067;-78
2023/02/26 07:25:59;;;;;;;10.77;3.22;;;2.90;99.90;;;;;;4936271;29;20051;-78
2023/02/26 07:28:26;;;;;;;7.63;2.42;;;2.90;99.90;;;;;;4937418;29;20043;-78
2023/02/26 07:30:53;;;;;;;6.13;2.72;;;2.90;99.90;;;;;;4936185;29;20063;-79
2023/02/26 07:33:19;;;;;;;10.40;2.78;;;3.00;99.90;;;;;;4952654;29;20055;-78
2023/02/26 07:35:46;;;;;;;7.28;2.50;;;3.00;99.90;;;;;;4937454;29;20411;-78
2023/02/26 07:38:13;;;;;;;10.35;2.45;;;3.00;99.90;;;;;;4942293;29;20047;-78
2023/02/26 07:40:39;;;;;;;6.97;2.53;;;3.10;99.90;;;;;;4943107;29;20039;-78
2023/02/26 07:43:06;;;;;;;11.88;2.78;;;3.10;99.90;;;;;;4943602;29;20370;-79
2023/02/26 07:45:32;;;;;;;13.05;3.97;;;3.10;99.90;;;;;;4942521;29;20036;-79
2023/02/26 07:47:59;;;;;;;8.98;1.98;;;3.10;99.90;;;;;;4943479;29;20048;-78
2023/02/26 07:50:26;;;;;;;11.02;3.20;;;3.10;99.90;;;;;;4943113;29;20059;-78
2023/02/26 07:52:53;;;;;;;12.48;2.85;;;3.00;99.90;;;;;;4942550;29;20126;-78
2023/02/26 07:55:19;;;;;;;6.57;2.17;;;2.90;99.90;;;;;;4926813;29;20463;-78
2023/02/26 07:57:46;;;;;;;9.68;3.25;;;2.90;99.90;;;;;;4942463;29;20131;-78
2023/02/26 08:00:13;;;;;;;10.73;3.38;;;2.80;99.90;;;;;;4943257;29;20467;-78
2023/02/26 08:02:39;;;;;;;13.60;4.18;;;2.80;99.90;;;;;;4943716;29;20040;-78
2023/02/26 08:05:06;;;;;;;32.97;4.40;;;2.70;99.90;;;;;;4942460;29;20458;-78
2023/02/26 08:07:32;;;;;;;7.47;2.22;;;2.70;99.90;;;;;;4943245;29;20044;-78
2023/02/26 08:09:59;;;;;;;8.02;3.70;;;2.70;99.90;;;;;;4943346;29;20047;-78
2023/02/26 08:12:26;;;;;;;10.18;2.28;;;2.70;99.90;;;;;;4941934;29;20059;-78
2023/02/26 08:14:52;;;;;;;11.10;3.13;;;2.60;99.90;;;;;;4942506;29;20043;-78
2023/02/26 08:17:19;;;;;;;9.85;2.20;;;2.70;99.90;;;;;;4942463;29;20048;-78
2023/02/26 08:19:45;;;;;;;8.93;2.65;;;2.80;99.90;;;;;;4942622;29;20106;-78
2023/02/26 08:22:13;;;;;;;6.35;1.98;;;2.90;99.90;;;;;;4942614;29;20055;-78
2023/02/26 08:24:39;;;;;;;9.38;2.70;;;3.00;99.90;;;;;;4941380;29;20415;-78
2023/02/26 08:27:06;;;;;;;9.43;2.20;;;3.00;99.90;;;;;;4943279;29;20417;-78
2023/02/26 08:29:32;;;;;;;7.93;2.15;;;3.10;99.90;;;;;;4943170;29;20055;-78
2023/02/26 08:31:59;;;;;;;7.65;1.90;;;3.10;99.90;;;;;;4941690;29;20463;-78
2023/02/26 08:34:26;;;;;;;8.80;3.15;;;3.20;99.90;;;;;;4943081;29;20050;-78
2023/02/26 08:36:52;;;;;;;14.43;3.90;;;3.40;99.90;;;;;;4942107;29;20055;-78
2023/02/26 08:39:19;;;;;;;6.93;1.95;;;3.60;99.90;;;;;;4942025;29;20043;-78
2023/02/26 08:41:46;;;;;;;7.60;2.10;;;3.70;99.90;;;;;;4942535;29;20047;-78
2023/02/26 08:44:12;;;;;;;10.27;2.05;;;3.80;99.90;;;;;;4941966;29;20107;-79
2023/02/26 08:46:39;;;;;;;10.90;2.00;;;4.00;99.90;;;;;;4942966;29;20062;-78
2023/02/26 08:49:06;;;;;;;7.63;2.38;;;4.10;99.90;;;;;;4923060;29;20094;-79
2023/02/26 08:51:32;;;;;;;12.07;2.05;;;4.20;99.90;;;;;;4938486;29;20277;-78
2023/02/26 08:53:59;;;;;;;4.85;1.55;;;4.40;99.90;;;;;;4939922;29;20047;-78
2023/02/26 08:56:26;;;;;;;7.70;2.85;;;4.50;99.90;;;;;;4939916;29;20062;-78
2023/02/26 08:58:53;;;;;;;7.20;2.50;;;4.70;99.90;;;;;;4938897;29;20074;-78
2023/02/26 09:01:19;;;;;;;5.20;1.83;;;4.80;99.90;;;;;;4939399;29;20044;-78
2023/02/26 09:03:46;;;;;;;9.02;1.80;;;4.80;99.90;;;;;;4939801;29;20103;-79
2023/02/26 09:06:14;;;;;;;9.00;3.17;;;5.00;99.90;;;;;;4938660;29;20382;-78
2023/02/26 09:08:40;;;;;;;5.00;1.92;;;5.10;99.90;;;;;;4939784;29;20529;-79
2023/02/26 09:11:07;;;;;;;5.75;2.10;;;5.30;99.90;;;;;;4938276;29;20055;-78
2023/02/26 09:13:33;;;;;;;10.18;2.85;;;5.40;99.90;;;;;;4939526;29;20470;-78
2023/02/26 09:16:00;;;;;;;13.40;3.78;;;5.60;99.90;;;;;;4937802;29;20127;-78
2023/02/26 09:18:27;;;;;;;6.03;2.10;;;5.70;99.90;;;;;;4935199;29;20047;-79
2023/02/26 09:20:54;;;;;;;12.40;3.22;;;5.70;99.90;;;;;;4937427;29;20059;-78
2023/02/26 09:23:20;;;;;;;10.68;2.67;;;5.80;99.90;;;;;;4939325;29;20129;-78
2023/02/26 09:25:47;;;;;;;15.45;4.32;;;5.80;99.90;;;;;;4937213;29;20043;-78
2023/02/26 09:28:14;;;;;;;8.90;2.75;;;5.90;99.90;;;;;;4937612;29;20378;-78
2023/02/26 09:30:41;;;;;;;8.90;3.20;;;6.00;99.90;;;;;;4937618;29;20402;-77
2023/02/26 09:33:08;;;;;;;8.20;2.60;;;6.10;99.90;;;;;;4938857;29;20450;-77
2023/02/26 09:35:35;;;;;;;10.60;2.70;;;6.10;99.90;;;;;;4938971;29;20062;-78
2023/02/26 09:38:02;;;;;;;11.65;2.65;;;6.20;99.90;;;;;;4937724;29;20054;-78
2023/02/26 09:40:29;;;;;;;9.93;3.15;;;6.40;99.90;;;;;;4938187;29;20152;-78
2023/02/26 09:42:56;;;;;;;7.10;2.80;;;6.50;99.90;;;;;;4938676;29;20054;-78
2023/02/26 09:45:23;;;;;;;13.35;2.58;;;6.40;99.90;;;;;;4937771;29;20123;-79
2023/02/26 09:47:50;;;;;;;10.45;2.15;;;6.40;99.90;;;;;;4938665;29;20052;-78
2023/02/26 09:50:17;;;;;;;10.15;2.13;;;6.50;99.90;;;;;;4937427;29;20394;-78
2023/02/26 09:52:43;;;;;;;8.63;2.53;;;6.60;99.90;;;;;;4937393;29;20487;-78
2023/02/26 09:55:10;;;;;;;6.32;2.00;;;6.50;99.90;;;;;;4931131;29;20048;-78
2023/02/26 09:57:37;;;;;;;7.70;2.95;;;6.40;99.90;;;;;;4936712;29;20056;-78
2023/02/26 10:00:03;;;;;;;6.55;2.45;;;6.50;99.90;;;;;;4937854;29;20051;-79
2023/02/26 10:02:37;;;;;;;12.43;3.63;;;6.30;99.90;;;;;;4938476;29;20058;-78
2023/02/26 10:12:26;;;;;;;30.80;8.90;;;12.30;99.90;;;;;;5106298;27;20361;-52
2023/02/26 10:14:53;;;;;;;23.63;7.22;;;15.20;99.90;;;;;;4939857;28;20085;-53
2023/02/26 10:17:20;;;;;;;22.23;6.78;;;16.20;99.90;;;;;;4990203;28;20049;-54
2023/02/26 10:19:46;;;;;;;26.45;6.90;;;16.80;99.90;;;;;;5071260;28;20383;-57
2023/02/26 10:22:13;;;;;;;27.25;7.95;;;17.10;99.90;;;;;;5071014;28;20048;-57
2023/02/26 10:24:40;;;;;;;22.85;6.90;;;17.40;99.90;;;;;;5070291;28;20360;-58
2023/02/26 10:27:06;;;;;;;19.17;6.00;;;17.60;99.90;;;;;;5071251;28;20098;-55
2023/02/26 10:29:33;;;;;;;27.65;7.18;;;17.80;99.90;;;;;;5071012;28;20367;-58
2023/02/26 10:31:59;;;;;;;17.50;6.40;;;18.20;99.90;;;;;;5069667;28;20048;-56
2023/02/26 10:34:26;;;;;;;16.17;5.60;;;18.50;99.90;;;;;;4968192;28;20432;-58
2023/02/26 10:36:53;;;;;;;16.25;5.22;;;18.60;99.50;;;;;;5068285;28;20471;-58
2023/02/26 10:39:19;;;;;;;13.77;5.05;;;18.60;99.60;;;;;;5069964;28;20041;-56
